Time;durP1;ratioP1;P1;durP2;ratioP2;P2;SDS_P1;SDS_P2;PMS_P1;PMS_P2;Temp;Humidity;BMP_temperature;BMP_pressure;BME280_temperature;BME280_humidity;BME280_pressure;Samples;Min_cycle;Max_cycle;Signal;HPM_P1;HPM_P2
2021/04/13 00:01:23;;;;;;;40.25;30.97;;;;;;;9.81;70.95;100126.95;1772269;80;21165;-63
2021/04/13 00:04:03;;;;;;;43.58;32.65;;;;;;;9.77;70.93;100129.30;1773611;80;21025;-61
2021/04/13 00:06:39;;;;;;;37.08;29.90;;;;;;;9.74;71.07;100134.30;1773616;80;21366;-64
2021/04/13 00:09:30;;;;;;;35.63;28.05;;;;;;;9.73;71.03;100133.50;1773602;80;21198;-65
2021/04/13 00:12:12;;;;;;;37.78;28.20;;;;;;;9.71;71.09;100136.94;1761043;80;21144;-62
2021/04/13 00:14:46;;;;;;;38.78;28.42;;;;;;;9.69;71.15;100132.31;1744359;80;21168;-64
2021/04/13 00:17:16;;;;;;;38.50;26.60;;;;;;;9.69;71.31;100143.05;1756526;80;21149;-66
2021/04/13 00:19:50;;;;;;;40.40;28.67;;;;;;;9.73;71.30;100145.59;1715965;82;22293;-65
2021/04/13 00:22:19;;;;;;;40.30;30.85;;;;;;;9.79;71.28;100139.78;1742869;82;21168;-65
2021/04/13 00:24:47;;;;;;;31.50;25.85;;;;;;;9.82;71.06;100142.84;1743022;80;21140;-63
2021/04/13 00:27:15;;;;;;;39.38;28.25;;;;;;;9.82;70.95;100135.31;1757376;80;21011;-63
2021/04/13 00:29:43;;;;;;;31.48;25.15;;;;;;;9.78;70.82;100138.99;1738606;82;21261;-65
2021/04/13 00:32:11;;;;;;;38.67;27.30;;;;;;;9.75;70.86;100139.44;1743016;82;22166;-63
2021/04/13 00:37:29;;;;;;;33.02;26.27;;;;;;;9.72;71.10;100142.61;1871995;76;28592;-66
2021/04/13 00:40:23;;;;;;;37.98;27.05;;;;;;;9.68;71.18;100145.47;1832473;77;21141;-63
2021/04/13 00:42:53;;;;;;;45.17;27.85;;;;;;;9.69;71.32;100148.42;1822297;78;21365;-63
2021/04/13 00:45:29;;;;;;;31.07;23.47;;;;;;;9.68;71.24;100144.12;1810433;78;21075;-62
2021/04/13 00:47:56;;;;;;;38.20;28.40;;;;;;;9.70;71.25;100148.72;1790582;78;20967;-64
2021/04/13 00:50:38;;;;;;;35.33;27.77;;;;;;;9.71;71.22;100136.94;1789105;80;21057;-65
2021/04/13 00:53:13;;;;;;;38.48;27.45;;;;;;;9.72;71.21;100137.23;1791761;78;20958;-65
2021/04/13 00:55:57;;;;;;;38.53;28.70;;;;;;;9.71;71.25;100136.11;1787127;79;21127;-64
2021/04/13 00:58:32;;;;;;;45.65;31.17;;;;;;;9.71;71.33;100147.67;1813439;78;22564;-64
2021/04/13 01:01:20;;;;;;;41.53;30.32;;;;;;;9.72;71.27;100143.95;1799888;78;21595;-62
2021/04/13 01:03:52;;;;;;;43.60;31.75;;;;;;;9.73;71.29;100134.84;1822393;78;21633;-63
2021/04/13 01:06:24;;;;;;;42.17;33.23;;;;;;;9.72;71.23;100135.07;1789917;80;21580;-64
2021/04/13 01:09:11;;;;;;;57.38;38.58;;;;;;;9.70;71.37;100127.23;1758691;81;21198;-62
2021/04/13 01:11:43;;;;;;;46.88;32.30;;;;;;;9.70;71.43;100138.50;1786814;80;21589;-63
2021/04/13 01:14:12;;;;;;;43.50;30.20;;;;;;;9.72;71.46;100137.23;1759234;80;21173;-60
2021/04/13 01:16:45;;;;;;;39.20;30.00;;;;;;;9.75;71.45;100146.16;1754929;80;21070;-64
2021/04/13 01:19:38;;;;;;;42.23;30.72;;;;;;;9.78;71.45;100136.83;1790159;79;21197;-63
2021/04/13 01:22:23;;;;;;;40.48;29.92;;;;;;;9.79;71.44;100140.61;1788345;80;21203;-61
2021/04/13 01:24:53;;;;;;;42.88;30.27;;;;;;;9.74;71.60;100135.64;1749020;81;21216;-66
2021/04/13 01:27:22;;;;;;;37.53;31.12;;;;;;;9.73;71.68;100137.53;1764889;80;21220;-62
2021/04/13 01:29:50;;;;;;;50.80;30.45;;;;;;;9.71;71.68;100132.91;1784442;80;21836;-64
2021/04/13 01:32:19;;;;;;;30.80;25.37;;;;;;;9.71;71.80;100136.94;1772794;80;21169;-63
2021/04/13 01:34:57;;;;;;;42.98;28.77;;;;;;;9.70;71.96;100131.27;1749640;80;21210;-63
2021/04/13 01:38:17;;;;;;;38.53;29.95;;;;;;;9.67;72.01;100137.11;1742456;81;21182;-62
2021/04/13 01:41:03;;;;;;;39.03;29.50;;;;;;;9.67;72.10;100133.08;1778468;80;21180;-63
2021/04/13 01:43:16;;;;;;;39.35;26.42;;;;;;;9.67;72.21;100135.77;1776039;80;21212;-62
2021/04/13 01:45:43;;;;;;;42.30;29.67;;;;;;;9.71;72.24;100133.42;1746006;80;21106;-65
2021/04/13 01:48:11;;;;;;;35.50;27.62;;;;;;;9.77;72.19;100125.78;1740683;82;21409;-62
2021/04/13 01:50:42;;;;;;;40.05;27.90;;;;;;;9.80;72.09;100128.81;1771237;80;21019;-64
2021/04/13 01:53:16;;;;;;;40.00;27.30;;;;;;;9.80;72.04;100126.66;1759581;81;21154;-64
2021/04/13 01:55:58;;;;;;;41.80;30.12;;;;;;;9.79;72.10;100127.70;1784531;80;20987;-63
2021/04/13 01:58:38;;;;;;;42.70;31.05;;;;;;;9.75;72.17;100123.33;1792832;80;21038;-62
2021/04/13 02:01:12;;;;;;;39.33;28.73;;;;;;;9.76;72.20;100124.14;1788772;80;22333;-64
2021/04/13 02:04:03;;;;;;;45.88;30.77;;;;;;;9.72;72.29;100123.80;1761345;81;21174;-64
2021/04/13 02:06:48;;;;;;;33.67;26.62;;;;;;;9.67;72.41;100118.84;1759819;81;21574;-62
2021/04/13 02:12:16;;;;;;;41.60;30.17;;;;;;;9.64;72.68;100119.58;1845347;76;28726;-62
2021/04/13 02:15:23;;;;;;;41.70;31.07;;;;;;;9.57;72.74;100112.18;1802285;78;21062;-64
2021/04/13 02:17:59;;;;;;;38.95;27.65;;;;;;;9.57;72.82;100104.64;1785029;79;21268;-62
2021/04/13 02:20:35;;;;;;;42.50;29.30;;;;;;;9.59;72.93;100103.90;1785649;79;21038;-63
2021/04/13 02:23:04;;;;;;;41.00;27.52;;;;;;;9.58;72.97;100096.36;1784813;80;21058;-63
2021/04/13 02:25:36;;;;;;;37.23;28.00;;;;;;;9.59;73.05;100098.53;1758107;80;21027;-63
2021/04/13 02:28:04;;;;;;;47.43;30.60;;;;;;;9.59;73.10;100092.61;1749900;80;21583;-62
2021/04/13 02:30:37;;;;;;;40.60;28.40;;;;;;;9.60;73.10;100095.59;1753714;80;21272;-62
2021/04/13 02:33:29;;;;;;;37.73;29.42;;;;;;;9.61;73.18;100101.78;1735823;82;20995;-63
2021/04/13 02:35:58;;;;;;;43.05;31.75;;;;;;;9.57;73.28;100096.59;1753654;80;21061;-63
2021/04/13 02:38:29;;;;;;;39.75;29.50;;;;;;;9.54;73.50;100102.44;1753849;80;21156;-64
2021/04/13 02:41:06;;;;;;;38.13;29.42;;;;;;;9.56;73.58;100102.48;1750954;80;21205;-63
2021/04/13 02:43:45;;;;;;;40.40;31.30;;;;;;;9.56;73.66;100088.23;1723169;81;21414;-63
2021/04/13 02:46:21;;;;;;;42.53;32.45;;;;;;;9.57;73.66;100097.41;1754208;80;21161;-63
2021/04/13 02:49:15;;;;;;;45.12;33.05;;;;;;;9.56;73.72;100097.11;1747922;80;21206;-62
2021/04/13 02:51:55;;;;;;;50.00;34.53;;;;;;;9.56;73.78;100093.08;1757591;79;21618;-62
2021/04/13 02:54:30;;;;;;;44.45;30.90;;;;;;;9.55;73.84;100096.81;1758265;80;21133;-63
2021/04/13 02:57:01;;;;;;;43.95;29.42;;;;;;;9.54;73.91;100096.52;1784849;80;21204;-63
2021/04/13 02:59:31;;;;;;;44.13;33.02;;;;;;;9.54;73.97;100089.02;1784814;80;21023;-63
2021/04/13 03:02:07;;;;;;;35.63;28.52;;;;;;;9.57;74.03;100093.38;1748442;80;21125;-63
2021/04/13 03:04:47;;;;;;;38.05;28.90;;;;;;;9.59;74.06;100091.81;1750540;80;21587;-65
2021/04/13 03:07:21;;;;;;;50.30;33.63;;;;;;;9.58;74.05;100091.52;1753819;81;21156;-62
2021/04/13 03:09:50;;;;;;;42.67;29.15;;;;;;;9.53;74.14;100092.22;1753836;81;21365;-61
2021/04/13 03:12:17;;;;;;;47.15;33.95;;;;;;;9.52;74.25;100099.97;1775707;79;21156;-63
2021/04/13 03:14:52;;;;;;;40.60;31.40;;;;;;;9.50;74.33;100099.90;1787880;79;21117;-63
2021/04/13 03:17:23;;;;;;;38.58;30.50;;;;;;;9.48;74.49;100102.02;1799376;79;21626;-63
2021/04/13 03:19:59;;;;;;;60.95;37.23;;;;;;;9.46;74.61;100105.45;1790625;78;21149;-64
2021/04/13 03:22:26;;;;;;;53.87;35.95;;;;;;;9.46;74.70;100104.10;1770001;79;21373;-63
2021/04/13 03:24:54;;;;;;;54.15;33.73;;;;;;;9.48;74.78;100102.02;1787963;79;21634;-65
2021/04/13 03:27:27;;;;;;;63.40;37.13;;;;;;;9.53;74.76;100104.83;1772307;79;21184;-65
2021/04/13 03:30:08;;;;;;;53.02;36.38;;;;;;;9.53;74.81;100100.27;1798858;79;21061;-64
2021/04/13 03:32:42;;;;;;;56.75;37.20;;;;;;;9.55;74.80;100101.36;1798407;79;21109;-64
2021/04/13 03:35:11;;;;;;;54.88;38.08;;;;;;;9.55;74.80;100097.33;1798807;79;21198;-66
2021/04/13 03:37:42;;;;;;;56.15;33.45;;;;;;;9.55;74.81;100104.87;1727943;81;21216;-63
2021/04/13 03:40:14;;;;;;;43.87;33.83;;;;;;;9.59;74.75;100097.98;1772493;79;21236;-64
2021/04/13 03:42:41;;;;;;;54.10;39.08;;;;;;;9.59;74.74;100095.84;1793647;79;21125;-67
2021/04/13 03:45:13;;;;;;;45.88;34.23;;;;;;;9.57;74.82;100097.94;1798787;79;21204;-65
2021/04/13 03:47:43;;;;;;;49.18;33.63;;;;;;;9.54;75.01;100105.13;1798785;79;21254;-65
2021/04/13 03:50:19;;;;;;;44.90;34.18;;;;;;;9.49;75.14;100105.00;1741845;79;21637;-66
2021/04/13 03:52:46;;;;;;;40.73;30.75;;;;;;;9.48;75.19;100100.16;1771945;79;21219;-65
2021/04/13 03:55:20;;;;;;;48.13;35.83;;;;;;;9.50;75.30;100110.12;1767220;81;21128;-65
2021/04/13 03:57:49;;;;;;;54.73;34.73;;;;;;;9.49;75.35;100103.66;1749011;80;21196;-64
2021/04/13 04:00:26;;;;;;;48.52;34.08;;;;;;;9.49;75.43;100100.45;1765217;80;21895;-64
2021/04/13 04:02:53;;;;;;;36.77;30.08;;;;;;;9.48;75.45;100108.73;1779196;80;21550;-65
2021/04/13 04:05:24;;;;;;;44.15;31.50;;;;;;;9.48;75.52;100108.20;1779816;80;21106;-65
2021/04/13 04:07:59;;;;;;;59.18;38.30;;;;;;;9.52;75.56;100119.30;1779911;80;21583;-65
2021/04/13 04:10:51;;;;;;;53.52;35.20;;;;;;;9.55;75.61;100110.77;1779987;80;21121;-64
2021/04/13 04:13:31;;;;;;;45.08;30.25;;;;;;;9.61;75.56;100112.52;1753251;81;21237;-66
2021/04/13 04:16:11;;;;;;;58.45;40.10;;;;;;;9.67;75.46;100109.44;1755220;80;21157;-67
2021/04/13 04:18:46;;;;;;;53.38;34.85;;;;;;;9.65;75.47;100117.72;1765908;80;21023;-64
2021/04/13 04:21:28;;;;;;;64.70;35.38;;;;;;;9.68;75.48;100113.77;1769045;80;21586;-64
2021/04/13 04:24:12;;;;;;;58.65;41.15;;;;;;;9.70;75.38;100118.36;1771868;80;21149;-64
2021/04/13 04:26:55;;;;;;;59.00;39.38;;;;;;;9.63;75.40;100117.15;1784253;80;21250;-63
2021/04/13 04:29:39;;;;;;;52.25;33.35;;;;;;;9.62;75.55;100125.73;1784226;80;20996;-67
2021/04/13 04:32:32;;;;;;;48.87;33.83;;;;;;;9.59;75.63;100120.02;1759582;80;21098;-64
2021/04/13 04:35:03;;;;;;;45.03;30.60;;;;;;;9.53;75.57;100125.78;1735082;82;21149;-64
2021/04/13 04:37:47;;;;;;;44.90;33.58;;;;;;;9.48;75.73;100116.27;1735007;82;21180;-63
2021/04/13 04:40:33;;;;;;;51.55;34.90;;;;;;;9.47;75.81;100122.67;1775464;80;21585;-65
2021/04/13 04:43:14;;;;;;;46.63;37.33;;;;;;;9.45;75.87;100122.59;1779668;80;21141;-64
2021/04/13 04:45:50;;;;;;;59.83;38.67;;;;;;;9.44;75.96;100125.02;1774368;80;21493;-64
2021/04/13 04:48:31;;;;;;;44.63;32.67;;;;;;;9.45;75.95;100126.10;1758452;81;21043;-63
2021/04/13 04:51:11;;;;;;;49.20;33.90;;;;;;;9.44;75.99;100127.17;1758177;80;21227;-64
2021/04/13 04:53:41;;;;;;;46.88;34.60;;;;;;;9.43;76.05;100122.84;1751561;80;22229;-63
2021/04/13 04:56:11;;;;;;;48.10;35.15;;;;;;;9.42;76.14;100117.18;1747138;82;21167;-63
2021/04/13 04:58:39;;;;;;;44.23;31.42;;;;;;;9.53;76.17;100118.25;1747144;82;21640;-63
2021/04/13 05:01:07;;;;;;;39.92;31.50;;;;;;;9.60;75.87;100113.56;1761904;80;21125;-65
2021/04/13 05:03:36;;;;;;;55.45;32.65;;;;;;;9.62;75.83;100111.48;1756060;80;21184;-62
2021/04/13 05:06:06;;;;;;;52.00;35.70;;;;;;;9.61;75.82;100111.18;1784294;80;21179;-64
2021/04/13 05:08:33;;;;;;;48.65;32.85;;;;;;;9.60;75.85;100114.91;1784207;80;21176;-64
2021/04/13 05:11:01;;;;;;;48.48;32.30;;;;;;;9.59;75.95;100112.75;1783202;80;21521;-63
2021/04/13 05:13:30;;;;;;;44.08;30.15;;;;;;;9.61;76.06;100109.84;1779774;80;21050;-62
2021/04/13 05:15:59;;;;;;;40.98;28.95;;;;;;;9.63;76.21;100111.26;1779814;80;21136;-62
2021/04/13 05:18:27;;;;;;;40.83;31.77;;;;;;;9.62;76.33;100102.08;1779770;80;21335;-63
2021/04/13 05:20:55;;;;;;;47.45;33.15;;;;;;;9.63;76.44;100106.41;1761740;80;21193;-65
2021/04/13 05:23:22;;;;;;;46.15;34.73;;;;;;;9.68;76.39;100111.08;1742956;81;21143;-65
2021/04/13 05:25:50;;;;;;;47.17;34.00;;;;;;;9.71;76.36;100110.08;1748886;82;21165;-64
2021/04/13 05:28:18;;;;;;;38.90;30.43;;;;;;;9.78;76.24;100112.66;1748908;82;21616;-65
2021/04/13 05:30:49;;;;;;;36.68;27.13;;;;;;;9.79;75.97;100103.52;1749771;80;21192;-63
2021/04/13 05:33:18;;;;;;;44.53;28.05;;;;;;;9.77;76.10;100109.15;1725909;82;21165;-65
2021/04/13 05:35:46;;;;;;;43.20;31.37;;;;;;;9.77;76.18;100100.27;1749071;82;21603;-66
2021/04/13 05:38:18;;;;;;;45.58;31.95;;;;;;;9.77;76.27;100102.44;1748996;81;21606;-65
2021/04/13 05:40:45;;;;;;;42.38;31.65;;;;;;;9.76;76.36;100098.11;1763116;80;21610;-65
2021/04/13 05:43:13;;;;;;;41.37;29.77;;;;;;;9.79;76.37;100096.28;1761189;81;21134;-64
2021/04/13 05:45:43;;;;;;;39.73;28.20;;;;;;;9.83;76.36;100098.78;1748826;81;21158;-64
2021/04/13 05:48:14;;;;;;;36.28;25.82;;;;;;;9.82;76.36;100100.38;1748908;82;20987;-64
2021/04/13 05:50:44;;;;;;;46.05;30.68;;;;;;;9.81;76.54;100102.77;1779485;80;21189;-66
2021/04/13 05:53:14;;;;;;;42.20;27.60;;;;;;;9.80;76.70;100098.45;1779873;80;21122;-65
2021/04/13 05:55:42;;;;;;;43.83;31.87;;;;;;;9.81;76.83;100097.41;1780014;80;22375;-66
2021/04/13 05:58:15;;;;;;;35.25;27.82;;;;;;;9.85;76.94;100100.72;1779593;80;21213;-65
2021/04/13 06:00:42;;;;;;;44.25;32.00;;;;;;;9.88;77.16;100097.55;1767521;80;21630;-62
2021/04/13 06:03:11;;;;;;;46.02;32.53;;;;;;;9.90;77.30;100097.33;1716359;82;21159;-64
2021/04/13 06:05:39;;;;;;;42.70;32.05;;;;;;;9.90;77.44;100096.81;1748932;82;21626;-64
2021/04/13 06:08:09;;;;;;;42.58;29.90;;;;;;;9.90;77.65;100098.67;1710233;81;22242;-64
2021/04/13 06:10:36;;;;;;;42.17;29.20;;;;;;;9.92;77.82;100102.78;1719782;81;21065;-63
2021/04/13 06:13:04;;;;;;;39.88;26.33;;;;;;;9.93;78.00;100096.84;1742162;81;21199;-65
2021/04/13 06:15:34;;;;;;;35.10;27.30;;;;;;;9.98;78.03;100102.34;1749553;82;21072;-64
2021/04/13 06:18:02;;;;;;;46.77;30.50;;;;;;;10.02;78.15;100104.31;1749202;82;21589;-65
2021/04/13 06:20:31;;;;;;;41.02;28.30;;;;;;;10.03;78.09;100103.27;1749642;82;22353;-65
2021/04/13 06:22:59;;;;;;;48.23;32.13;;;;;;;10.10;78.13;100107.70;1749656;82;21152;-66
2021/04/13 06:25:30;;;;;;;37.33;25.90;;;;;;;10.14;78.16;100107.00;1749658;82;21148;-64
2021/04/13 06:27:58;;;;;;;38.88;28.45;;;;;;;10.19;78.06;100096.91;1748701;82;21053;-64
2021/04/13 06:30:27;;;;;;;42.13;28.90;;;;;;;10.20;78.01;100096.68;1749681;82;21136;-65
2021/04/13 06:32:58;;;;;;;45.00;28.90;;;;;;;10.22;78.11;100098.59;1747128;82;21199;-63
2021/04/13 06:35:26;;;;;;;40.52;28.90;;;;;;;10.20;78.28;100095.86;1749633;82;21148;-64
2021/04/13 06:37:56;;;;;;;44.48;29.92;;;;;;;10.19;78.69;100097.73;1749659;82;21068;-64
2021/04/13 06:40:51;;;;;;;40.80;29.10;;;;;;;10.19;78.73;100100.94;1719813;82;21171;-64
2021/04/13 06:43:58;;;;;;;45.65;29.05;;;;;;;10.22;78.97;100103.96;1719782;83;21089;-67
2021/04/13 06:46:57;;;;;;;35.85;26.60;;;;;;;10.30;79.03;100106.83;1719772;83;21632;-65
2021/04/13 06:49:46;;;;;;;45.90;30.27;;;;;;;10.35;79.04;100105.06;1738048;82;21609;-66
2021/04/13 06:52:29;;;;;;;44.48;29.85;;;;;;;10.38;79.06;100110.48;1749607;82;21068;-65
2021/04/13 06:55:32;;;;;;;54.00;32.17;;;;;;;10.37;79.27;100107.49;1749679;82;21140;-64
2021/04/13 06:58:47;;;;;;;37.33;27.87;;;;;;;10.33;79.53;100104.47;1718533;81;21156;-67
2021/04/13 07:01:30;;;;;;;41.28;27.65;;;;;;;10.32;79.82;100104.17;1717945;82;21272;-64
2021/04/13 07:04:15;;;;;;;43.95;29.12;;;;;;;10.28;79.82;100103.02;1702638;84;21669;-65
2021/04/13 07:07:12;;;;;;;37.03;27.27;;;;;;;10.25;79.90;100102.16;1753317;81;21034;-64
2021/04/13 07:09:46;;;;;;;35.55;26.82;;;;;;;10.25;80.04;100101.34;1769154;80;21041;-66
2021/04/13 07:12:28;;;;;;;42.15;27.10;;;;;;;10.28;80.03;100100.86;1736588;80;21136;-64
2021/04/13 07:15:13;;;;;;;39.42;25.77;;;;;;;10.29;79.90;100103.31;1718368;83;21232;-65
2021/04/13 07:17:49;;;;;;;37.83;27.02;;;;;;;10.32;80.05;100100.67;1721942;83;21128;-66
2021/04/13 07:20:21;;;;;;;51.92;29.92;;;;;;;10.36;79.79;100103.98;1724473;83;21188;-65
2021/04/13 07:23:06;;;;;;;39.95;28.80;;;;;;;10.41;79.75;100104.61;1744600;81;21661;-64
2021/04/13 07:25:45;;;;;;;48.70;34.85;;;;;;;10.44;79.80;100103.62;1728335;81;21176;-65
2021/04/13 07:28:23;;;;;;;44.13;31.35;;;;;;;10.50;79.70;100109.38;1754594;81;21549;-66
2021/04/13 07:31:01;;;;;;;54.53;30.60;;;;;;;10.61;79.59;100107.70;1748894;81;21041;-66
2021/04/13 07:33:32;;;;;;;41.58;27.90;;;;;;;10.70;79.08;100108.13;1724678;83;21061;-65
2021/04/13 07:36:20;;;;;;;36.28;26.60;;;;;;;10.74;79.02;100107.97;1724654;82;21045;-66
2021/04/13 07:38:50;;;;;;;38.45;29.30;;;;;;;10.71;78.78;100105.22;1724688;83;21152;-64
2021/04/13 07:41:33;;;;;;;47.48;34.80;;;;;;;10.77;78.79;100110.98;1735484;81;21597;-66
2021/04/13 07:44:15;;;;;;;40.40;30.68;;;;;;;10.83;78.55;100113.25;1717338;83;21518;-64
2021/04/13 07:47:20;;;;;;;52.75;33.20;;;;;;;10.87;78.50;100121.94;1718989;83;21656;-64
2021/04/13 07:49:52;;;;;;;44.05;30.62;;;;;;;10.94;78.42;100115.05;1706966;83;21202;-66
2021/04/13 07:52:56;;;;;;;42.23;31.35;;;;;;;11.01;78.28;100123.80;1690880;83;21682;-65
2021/04/13 07:55:46;;;;;;;52.70;33.42;;;;;;;11.08;78.37;100116.94;1707223;84;21327;-64
2021/04/13 07:58:36;;;;;;;45.95;34.90;;;;;;;11.17;78.00;100114.13;1724630;83;21172;-65
2021/04/13 08:01:07;;;;;;;38.50;30.97;;;;;;;11.25;77.59;100116.41;1690296;83;21018;-64
2021/04/13 08:03:35;;;;;;;49.27;35.35;;;;;;;11.25;77.37;100106.98;1690740;83;21650;-63
2021/04/13 08:06:28;;;;;;;46.23;31.52;;;;;;;11.26;77.28;100109.97;1707242;84;21567;-63
2021/04/13 08:09:12;;;;;;;45.98;30.77;;;;;;;11.25;77.33;100116.41;1702673;84;21108;-66
2021/04/13 08:12:21;;;;;;;45.60;33.00;;;;;;;11.21;77.58;100106.66;1707104;84;21221;-67
2021/04/13 08:15:06;;;;;;;45.05;30.50;;;;;;;11.28;77.59;100112.69;1641661;87;21244;-66
2021/04/13 08:17:37;;;;;;;43.98;32.42;;;;;;;11.35;77.39;100117.41;1712992;83;21222;-65
2021/04/13 08:20:10;;;;;;;46.58;32.17;;;;;;;11.38;77.23;100111.52;1691736;84;21649;-66
2021/04/13 08:22:54;;;;;;;49.77;36.10;;;;;;;11.41;77.26;100109.41;1712856;83;22303;-67
2021/04/13 08:25:49;;;;;;;52.30;33.92;;;;;;;11.43;77.22;100114.00;1699466;83;21597;-65
2021/04/13 08:28:33;;;;;;;48.40;34.65;;;;;;;11.43;77.23;100116.16;1725995;83;21045;-66
2021/04/13 08:34:42;;;;;;;41.80;33.02;;;;;;;11.58;76.96;100115.59;1740913;80;21628;-65
2021/04/13 08:37:54;;;;;;;52.55;38.98;;;;;;;11.60;76.88;100112.95;1726293;83;21362;-63
2021/04/13 08:40:35;;;;;;;48.95;37.33;;;;;;;11.59;76.82;100111.31;1727057;81;21693;-63
2021/04/13 08:43:16;;;;;;;51.45;36.53;;;;;;;11.59;76.83;100107.80;1755985;81;21534;-65
2021/04/13 08:46:06;;;;;;;55.75;38.83;;;;;;;11.60;76.87;100100.83;1756110;81;21168;-65
2021/04/13 08:48:40;;;;;;;45.88;34.30;;;;;;;11.66;76.88;100100.34;1756156;81;21168;-66
2021/04/13 08:51:14;;;;;;;47.83;33.83;;;;;;;11.76;76.44;100100.53;1732496;80;21184;-66
2021/04/13 08:53:49;;;;;;;54.00;36.75;;;;;;;11.87;75.97;100094.23;1698108;83;21204;-63
2021/04/13 08:56:28;;;;;;;48.73;35.45;;;;;;;11.92;75.42;100098.88;1658834;85;21367;-64
2021/04/13 08:59:04;;;;;;;52.90;37.67;;;;;;;11.89;75.38;100100.73;1726072;83;21136;-65
2021/04/13 09:01:43;;;;;;;50.05;36.23;;;;;;;11.90;75.28;100104.51;1717293;83;21615;-64
2021/04/13 09:04:30;;;;;;;58.08;35.17;;;;;;;11.88;75.28;100098.57;1712789;83;21373;-64
2021/04/13 09:07:12;;;;;;;56.83;40.80;;;;;;;11.83;75.50;100097.67;1756120;81;21065;-66
2021/04/13 09:09:45;;;;;;;57.23;37.08;;;;;;;11.77;75.72;100098.95;1760484;80;21041;-63
2021/04/13 09:12:24;;;;;;;45.12;34.38;;;;;;;11.81;75.68;100095.22;1781890;80;21596;-65
2021/04/13 09:15:03;;;;;;;52.58;35.13;;;;;;;11.79;75.67;100095.49;1696287;84;21182;-64
2021/04/13 09:17:46;;;;;;;45.00;33.63;;;;;;;11.81;75.75;100096.56;1663872;83;22651;-64
2021/04/13 09:20:34;;;;;;;51.33;35.90;;;;;;;11.88;75.71;100096.41;1816476;76;23414;-67
2021/04/13 09:23:27;;;;;;;53.58;37.13;;;;;;;11.80;76.00;100086.31;1781469;80;21550;-64
2021/04/13 09:26:22;;;;;;;45.50;33.95;;;;;;;11.78;76.10;100084.95;1781404;80;21268;-64
2021/04/13 09:28:57;;;;;;;53.20;37.48;;;;;;;11.80;76.33;100089.02;1765468;80;20979;-63
2021/04/13 09:31:41;;;;;;;43.78;31.12;;;;;;;11.82;76.01;100087.95;1781277;80;21015;-64
2021/04/13 09:34:25;;;;;;;46.42;34.23;;;;;;;11.84;75.80;100089.36;1742387;81;21550;-66
2021/04/13 09:37:27;;;;;;;48.85;32.42;;;;;;;11.84;75.67;100090.70;1792523;77;21185;-66
2021/04/13 09:40:23;;;;;;;40.75;32.60;;;;;;;11.86;75.66;100082.34;1784926;80;21439;-65
2021/04/13 09:43:13;;;;;;;48.78;32.75;;;;;;;11.96;75.61;100087.87;1784931;80;20940;-65
2021/04/13 09:46:05;;;;;;;50.75;36.25;;;;;;;12.00;75.30;100075.53;1780744;80;21508;-64
2021/04/13 09:48:58;;;;;;;44.70;32.60;;;;;;;12.00;75.39;100080.39;1808200;79;21214;-64
2021/04/13 09:51:44;;;;;;;44.08;33.67;;;;;;;11.99;75.13;100082.80;1804493;79;21112;-65
2021/04/13 09:54:41;;;;;;;45.67;34.05;;;;;;;11.95;75.26;100081.67;1815846;79;21179;-63
2021/04/13 09:57:55;;;;;;;32.25;26.40;;;;;;;11.94;75.33;100091.37;1814907;79;21141;-64
2021/04/13 10:00:28;;;;;;;;;;;;;;;12.01;75.27;100088.77;1749560;82;21098;-66
2021/04/13 10:03:14;;;;;;;54.63;35.08;;;;;;;11.99;75.25;100084.14;1770948;79;20343;-61
2021/04/13 10:05:48;;;;;;;44.90;33.33;;;;;;;11.97;75.25;100088.98;1704073;83;21172;-62
2021/04/13 10:08:23;;;;;;;46.65;35.48;;;;;;;11.96;75.30;100082.48;1732112;82;21387;-63
2021/04/13 10:11:07;;;;;;;41.23;28.73;;;;;;;11.97;75.40;100078.20;1789610;79;21630;-66
2021/04/13 10:13:46;;;;;;;53.58;39.40;;;;;;;12.01;75.50;100083.91;1798635;77;21146;-63
2021/04/13 10:16:40;;;;;;;56.50;37.80;;;;;;;11.98;75.67;100079.84;1805318;79;20991;-64
2021/04/13 10:19:17;;;;;;;;;;;;;;;12.06;75.68;100075.89;1786974;78;21136;-63
2021/04/13 10:22:12;;;;;;;55.17;37.33;;;;;;;12.10;75.56;100075.66;1720538;82;21397;-65
2021/04/13 10:25:28;;;;;;;46.63;32.98;;;;;;;12.10;75.54;100078.36;1764035;81;21172;-64
2021/04/13 10:28:25;;;;;;;40.10;31.73;;;;;;;12.11;75.58;100067.34;1756294;81;21046;-63
2021/04/13 10:31:11;;;;;;;43.68;34.05;;;;;;;12.14;75.40;100076.79;1760187;79;21133;-63
2021/04/13 10:33:59;;;;;;;47.95;36.00;;;;;;;12.13;75.36;100071.92;1717152;81;21228;-62
2021/04/13 10:36:53;;;;;;;45.55;32.20;;;;;;;12.17;75.39;100074.43;1791601;78;21201;-62
2021/04/13 10:39:39;;;;;;;;;;;;;;;12.30;75.19;100071.06;1810883;78;21125;-62
2021/04/13 10:43:02;;;;;;;52.33;37.93;;;;;;;12.39;74.69;100069.55;1792411;78;20249;-66
2021/04/13 10:45:56;;;;;;;50.98;34.50;;;;;;;12.37;74.61;100072.52;1803291;78;21022;-64
2021/04/13 10:48:57;;;;;;;48.02;32.20;;;;;;;12.35;74.45;100072.47;1820004;78;21627;-65
2021/04/13 10:52:06;;;;;;;48.95;32.45;;;;;;;12.28;74.05;100065.91;1807218;78;21385;-62
2021/04/13 10:55:03;;;;;;;61.25;38.23;;;;;;;12.30;73.86;100069.18;1787634;80;21602;-63
2021/04/13 10:58:05;;;;;;;63.48;39.03;;;;;;;12.34;73.77;100065.44;1787773;80;21651;-64
2021/04/13 11:01:17;;;;;;;62.58;38.85;;;;;;;12.39;73.79;100066.84;1787896;80;21125;-64
2021/04/13 11:04:00;;;;;;;55.58;33.23;;;;;;;12.47;73.54;100055.63;1789670;78;21129;-64
2021/04/13 11:07:06;;;;;;;62.50;37.58;;;;;;;12.62;72.56;100058.47;1776700;79;22160;-63
2021/04/13 11:10:12;;;;;;;59.58;36.40;;;;;;;12.67;72.15;100055.29;1853320;77;21638;-65
2021/04/13 11:12:58;;;;;;;60.20;37.48;;;;;;;12.71;71.88;100051.54;1796244;78;21121;-64
2021/04/13 11:16:07;;;;;;;47.53;32.38;;;;;;;12.75;71.49;100043.23;1787630;80;21176;-62
2021/04/13 11:19:14;;;;;;;60.73;38.45;;;;;;;12.78;71.36;100041.37;1792189;78;21625;-65
2021/04/13 11:22:12;;;;;;;70.72;46.18;;;;;;;12.84;71.14;100044.41;1745453;81;21063;-63
2021/04/13 11:25:27;;;;;;;76.17;44.73;;;;;;;12.81;70.96;100048.94;1736094;82;21006;-65
2021/04/13 11:28:23;;;;;;;65.42;38.75;;;;;;;12.74;71.23;100051.58;1787289;80;21192;-62
2021/04/13 11:31:12;;;;;;;64.53;42.05;;;;;;;12.67;71.45;100048.55;1787016;80;21244;-64
2021/04/13 11:34:19;;;;;;;61.60;39.33;;;;;;;12.66;71.54;100043.42;1794070;78;21177;-65
2021/04/13 11:37:36;;;;;;;63.35;39.83;;;;;;;12.67;71.72;100051.77;1814758;78;21189;-63
2021/04/13 11:40:28;;;;;;;57.38;38.45;;;;;;;12.63;71.74;100039.33;1819360;78;21140;-66
2021/04/13 11:42:57;;;;;;;66.53;40.80;;;;;;;12.68;71.68;100048.83;1801619;78;21010;-66
2021/04/13 11:45:48;;;;;;;82.53;45.35;;;;;;;12.71;71.67;100044.00;1754227;81;21656;-63
2021/04/13 11:48:25;;;;;;;68.78;41.25;;;;;;;12.68;71.88;100042.61;1742816;81;21156;-67
2021/04/13 11:51:10;;;;;;;63.20;41.50;;;;;;;12.58;72.35;100040.63;1742367;81;21641;-61
2021/04/13 11:53:43;;;;;;;63.48;42.38;;;;;;;12.55;72.57;100039.80;1793050;78;21114;-63
2021/04/13 11:56:33;;;;;;;68.62;45.48;;;;;;;12.50;72.92;100042.44;1790742;78;21567;-65
2021/04/13 11:59:19;;;;;;;64.40;41.70;;;;;;;12.46;73.28;100039.97;1787788;78;21141;-63
2021/04/13 12:01:49;;;;;;;83.42;44.83;;;;;;;12.52;73.45;100040.81;1793407;78;21089;-67
2021/04/13 12:04:24;;;;;;;62.35;41.90;;;;;;;12.57;73.44;100036.83;1794418;78;21357;-64
2021/04/13 12:07:01;;;;;;;65.37;42.25;;;;;;;12.60;73.47;100034.98;1800113;78;21229;-64
2021/04/13 12:09:59;;;;;;;71.45;45.08;;;;;;;12.59;73.62;100026.61;1804820;78;21165;-65
2021/04/13 12:12:35;;;;;;;59.65;41.53;;;;;;;12.56;73.61;100029.82;1790779;78;21121;-65
2021/04/13 12:15:12;;;;;;;65.97;43.33;;;;;;;12.58;73.64;100024.97;1793737;78;21189;-64
2021/04/13 12:17:44;;;;;;;55.75;41.05;;;;;;;12.54;73.77;100021.16;1787216;80;22808;-63
2021/04/13 12:20:31;;;;;;;55.75;40.63;;;;;;;12.52;73.60;100021.94;1803600;77;21130;-66
2021/04/13 12:23:17;;;;;;;67.72;45.23;;;;;;;12.49;73.55;100019.22;1808846;79;21090;-69